createdAt,value
2022-10-10T00:01:14.277Z,1.63
2022-10-10T00:03:41.586Z,1.77
2022-10-10T00:06:08.897Z,2.10
2022-10-10T00:08:35.952Z,2.17
2022-10-10T00:11:03.128Z,2.13
2022-10-10T00:13:29.628Z,1.73
2022-10-10T00:15:56.075Z,1.73
2022-10-10T00:18:22.621Z,2.05
2022-10-10T00:20:51.485Z,2.03
2022-10-10T00:23:18.798Z,2.13
2022-10-10T00:25:45.606Z,1.83
2022-10-10T00:28:12.735Z,1.90
2022-10-10T00:30:39.676Z,1.88
2022-10-10T00:33:06.442Z,2.10
2022-10-10T00:35:33.082Z,1.58
2022-10-10T00:37:59.529Z,1.80
2022-10-10T00:40:26.846Z,1.92
2022-10-10T00:42:53.781Z,1.58
2022-10-10T00:45:39.393Z,1.85
2022-10-10T00:48:11.968Z,2.78
2022-10-10T00:50:59.160Z,2.20
2022-10-10T00:53:30.727Z,2.00
2022-10-10T00:55:57.300Z,1.95
2022-10-10T00:58:24.324Z,1.98
2022-10-10T01:00:52.102Z,2.20
2022-10-10T01:03:18.620Z,2.10
2022-10-10T01:05:47.459Z,2.05
2022-10-10T01:08:14.846Z,2.10
2022-10-10T01:11:06.430Z,1.70
2022-10-10T01:13:40.675Z,2.55
2022-10-10T01:16:10.499Z,2.08
2022-10-10T01:18:56.572Z,1.90
2022-10-10T01:21:37.406Z,2.22
2022-10-10T01:24:25.552Z,2.20
2022-10-10T01:27:04.073Z,2.45
2022-10-10T01:29:37.232Z,1.80
2022-10-10T01:32:11.917Z,3.40
2022-10-10T01:35:03.519Z,3.47
2022-10-10T01:38:00.417Z,3.83
2022-10-10T01:40:36.285Z,3.92
2022-10-10T01:43:06.144Z,4.25
2022-10-10T01:45:32.748Z,4.07
2022-10-10T01:48:03.462Z,3.85
2022-10-10T01:50:34.915Z,3.42
2022-10-10T01:53:14.468Z,3.40
2022-10-10T01:55:53.359Z,3.40
2022-10-10T01:58:55.007Z,3.70
2022-10-10T02:01:44.095Z,3.70
2022-10-10T02:04:16.913Z,3.40
2022-10-10T02:07:01.715Z,3.53
2022-10-10T02:09:34.896Z,3.58
2022-10-10T02:12:02.238Z,2.55
2022-10-10T02:14:34.115Z,2.60
2022-10-10T02:17:02.234Z,3.10
2022-10-10T02:19:30.409Z,3.30
2022-10-10T02:21:56.893Z,3.30
2022-10-10T02:24:24.977Z,2.85
2022-10-10T02:27:03.260Z,3.10
2022-10-10T02:29:34.980Z,3.33
2022-10-10T02:32:08.346Z,3.22
2022-10-10T02:34:39.133Z,2.67
2022-10-10T02:37:12.439Z,2.63
2022-10-10T02:39:48.303Z,3.20
2022-10-10T02:42:18.016Z,3.50
2022-10-10T02:44:46.250Z,3.00
2022-10-10T02:47:13.173Z,3.42
2022-10-10T02:49:39.912Z,3.05
2022-10-10T02:52:06.846Z,2.80
2022-10-10T02:54:33.310Z,2.78
2022-10-10T02:56:59.828Z,2.90
2022-10-10T02:59:26.297Z,3.58
2022-10-10T03:01:52.685Z,3.47
2022-10-10T03:04:19.134Z,3.50
2022-10-10T03:06:45.790Z,3.50
2022-10-10T03:09:12.286Z,4.20
2022-10-10T03:11:38.738Z,3.20
2022-10-10T03:14:05.451Z,3.60
2022-10-10T03:16:31.856Z,3.47
2022-10-10T03:18:58.417Z,3.88
2022-10-10T03:21:24.771Z,3.58
2022-10-10T03:23:51.151Z,2.85
2022-10-10T03:26:17.592Z,2.95
2022-10-10T03:28:44.726Z,3.40
2022-10-10T03:31:11.298Z,3.05
2022-10-10T03:33:37.773Z,3.40
2022-10-10T03:36:04.696Z,2.60
2022-10-10T03:38:31.112Z,3.03
2022-10-10T03:40:57.507Z,2.90
2022-10-10T03:43:23.933Z,2.88
2022-10-10T03:45:50.489Z,3.22
2022-10-10T03:48:17.013Z,2.83
2022-10-10T03:50:43.435Z,2.40
2022-10-10T03:53:10.695Z,2.80
2022-10-10T03:55:40.566Z,2.70
2022-10-10T03:58:07.182Z,2.85
2022-10-10T04:00:33.648Z,2.92
2022-10-10T04:03:00.266Z,2.40
2022-10-10T04:05:26.678Z,2.45
2022-10-10T04:07:53.069Z,2.70
2022-10-10T04:10:19.560Z,3.03
2022-10-10T04:12:46.024Z,3.20
2022-10-10T04:15:12.479Z,3.33
2022-10-10T04:17:38.919Z,3.35
2022-10-10T04:20:05.617Z,3.17
2022-10-10T04:22:32.017Z,5.13
2022-10-10T04:24:58.572Z,4.57
2022-10-10T04:27:25.016Z,4.05
2022-10-10T04:29:51.399Z,3.33
2022-10-10T04:32:17.793Z,3.95
2022-10-10T04:34:44.257Z,3.75
2022-10-10T04:37:10.713Z,3.70
2022-10-10T04:39:37.190Z,3.22
2022-10-10T04:42:03.654Z,3.97
2022-10-10T04:44:30.333Z,3.75
2022-10-10T04:46:56.745Z,3.95
2022-10-10T04:49:23.203Z,3.83
2022-10-10T04:51:49.594Z,3.85
2022-10-10T04:54:16.041Z,3.72
2022-10-10T04:56:42.543Z,3.33
2022-10-10T04:59:10.108Z,3.63
2022-10-10T05:01:36.669Z,4.13
2022-10-10T05:04:04.266Z,3.38
2022-10-10T05:06:30.770Z,4.25
2022-10-10T05:08:57.219Z,3.70
2022-10-10T05:11:23.609Z,3.30
2022-10-10T05:13:50.710Z,3.55
2022-10-10T05:16:17.245Z,3.53
2022-10-10T05:18:44.138Z,4.00
2022-10-10T05:21:11.936Z,3.83
2022-10-10T05:23:38.788Z,4.03
2022-10-10T05:26:05.182Z,3.40
2022-10-10T05:28:32.008Z,3.53
2022-10-10T05:30:58.467Z,3.55
2022-10-10T05:33:24.888Z,3.90
2022-10-10T05:35:51.256Z,3.53
2022-10-10T05:38:17.959Z,4.53
2022-10-10T05:40:44.502Z,4.93
2022-10-10T05:43:11.156Z,8.38
2022-10-10T05:45:37.587Z,5.00
2022-10-10T05:48:04.140Z,4.93
2022-10-10T05:50:32.778Z,5.90
2022-10-10T05:52:59.420Z,5.00
2022-10-10T05:55:26.300Z,5.85
2022-10-10T05:57:52.788Z,4.88
2022-10-10T06:00:19.564Z,4.97
2022-10-10T06:02:46.008Z,4.43
2022-10-10T06:05:12.438Z,4.50
2022-10-10T06:08:02.361Z,5.35
2022-10-10T06:10:25.247Z,4.18
2022-10-10T06:12:51.938Z,4.88
2022-10-10T06:15:18.562Z,6.40
2022-10-10T06:17:45.025Z,8.38
2022-10-10T06:20:11.442Z,11.35
2022-10-10T06:22:37.893Z,8.68
2022-10-10T06:25:09.542Z,7.40
2022-10-10T06:27:42.154Z,6.10
2022-10-10T06:30:08.980Z,6.30
2022-10-10T06:32:35.573Z,5.03
2022-10-10T06:35:02.218Z,5.05
2022-10-10T06:37:28.576Z,7.00
2022-10-10T06:39:54.967Z,5.10
2022-10-10T06:42:21.375Z,5.10
2022-10-10T06:44:47.760Z,4.28
2022-10-10T06:47:14.192Z,4.75
2022-10-10T06:49:40.630Z,5.30
2022-10-10T06:52:06.999Z,4.65
2022-10-10T06:54:33.481Z,5.80
2022-10-10T06:56:59.910Z,8.93
2022-10-10T06:59:26.292Z,5.60
2022-10-10T07:01:52.726Z,5.65
2022-10-10T07:04:19.374Z,5.45
2022-10-10T07:06:45.796Z,5.40
2022-10-10T07:09:12.273Z,5.60
2022-10-10T07:11:39.477Z,5.47
2022-10-10T07:14:05.930Z,6.25
2022-10-10T07:16:33.989Z,5.63
2022-10-10T07:19:00.384Z,4.78
2022-10-10T07:21:27.691Z,5.25
2022-10-10T07:23:54.839Z,5.72
2022-10-10T07:26:22.506Z,5.03
2022-10-10T07:28:49.540Z,4.97
2022-10-10T07:31:15.994Z,5.65
2022-10-10T07:33:49.889Z,6.03
2022-10-10T07:36:16.775Z,5.30
2022-10-10T07:38:43.164Z,5.50
2022-10-10T07:41:13.174Z,5.63
2022-10-10T07:43:39.802Z,5.70
2022-10-10T07:46:13.656Z,10.07
2022-10-10T07:48:40.660Z,15.68
2022-10-10T07:51:07.361Z,5.70
2022-10-10T07:53:33.801Z,5.43
2022-10-10T07:56:00.291Z,6.95
2022-10-10T07:58:26.852Z,4.72
2022-10-10T08:01:02.833Z,4.70
2022-10-10T08:03:29.248Z,4.50
2022-10-10T08:05:55.948Z,5.18
2022-10-10T08:08:22.519Z,4.13
2022-10-10T08:10:48.985Z,3.25
2022-10-10T08:13:15.388Z,3.13
2022-10-10T08:15:41.887Z,2.75
2022-10-10T08:18:08.414Z,2.88
2022-10-10T08:20:34.821Z,3.03
2022-10-10T08:23:01.287Z,4.00
2022-10-10T08:25:27.773Z,2.97
2022-10-10T08:27:54.233Z,2.80
2022-10-10T08:30:20.608Z,2.78
2022-10-10T08:32:47.003Z,2.78
2022-10-10T08:35:13.436Z,2.88
2022-10-10T08:37:39.851Z,2.83
2022-10-10T08:40:07.322Z,2.72
2022-10-10T08:42:43.700Z,2.80
2022-10-10T08:45:19.048Z,2.47
2022-10-10T08:47:50.078Z,2.75
2022-10-10T08:50:36.273Z,2.67
2022-10-10T08:53:13.439Z,3.20
2022-10-10T08:55:43.485Z,2.88
2022-10-10T08:58:19.519Z,3.25
2022-10-10T09:00:54.949Z,2.60
2022-10-10T09:03:35.068Z,2.88
2022-10-10T09:06:45.189Z,2.88
2022-10-10T09:09:34.127Z,2.40
2022-10-10T09:12:23.142Z,2.45
2022-10-10T09:15:14.341Z,3.22
2022-10-10T09:17:48.136Z,2.58
2022-10-10T09:20:36.496Z,2.47
2022-10-10T09:23:19.620Z,2.20
2022-10-10T09:26:01.387Z,2.75
2022-10-10T09:28:46.962Z,2.97
2022-10-10T09:31:33.961Z,2.55
2022-10-10T09:34:12.315Z,2.50
2022-10-10T09:36:38.943Z,3.00
2022-10-10T09:39:33.055Z,2.72
2022-10-10T09:42:13.472Z,2.40
2022-10-10T09:44:41.590Z,2.70
2022-10-10T09:47:14.048Z,2.20
2022-10-10T09:49:41.612Z,3.10
2022-10-10T09:52:31.711Z,3.50
2022-10-10T09:55:18.653Z,2.38
2022-10-10T09:57:46.857Z,2.35
2022-10-10T10:00:19.102Z,2.72
2022-10-10T10:02:50.402Z,2.80
2022-10-10T10:05:26.260Z,2.45
2022-10-10T10:07:53.058Z,2.67
2022-10-10T10:10:24.411Z,2.50
2022-10-10T10:12:52.064Z,2.80
2022-10-10T10:15:20.331Z,2.38
2022-10-10T10:17:46.969Z,2.45
2022-10-10T10:20:28.711Z,2.33
2022-10-10T10:22:55.432Z,2.60
2022-10-10T10:25:33.545Z,2.50
2022-10-10T10:28:12.107Z,2.10
2022-10-10T10:30:40.386Z,2.30
2022-10-10T10:33:35.783Z,2.60
2022-10-10T10:36:12.192Z,2.50
2022-10-10T10:39:09.224Z,2.47
2022-10-10T10:41:45.776Z,2.83
2022-10-10T10:44:33.052Z,2.30
2022-10-10T10:47:20.746Z,2.25
2022-10-10T10:50:08.410Z,2.67
2022-10-10T10:52:49.899Z,2.35
2022-10-10T10:55:41.627Z,2.45
2022-10-10T11:01:56.798Z,2.28
2022-10-10T11:05:22.472Z,2.60
2022-10-10T11:07:26.411Z,2.13
2022-10-10T11:10:01.598Z,2.30
2022-10-10T11:12:40.177Z,2.35
2022-10-10T11:16:01.458Z,2.15
2022-10-10T11:18:43.314Z,2.92
2022-10-10T11:21:34.078Z,2.05
2022-10-10T11:24:11.950Z,2.40
2022-10-10T11:26:44.148Z,2.67
2022-10-10T11:29:30.560Z,2.58
2022-10-10T11:32:16.828Z,2.15
2022-10-10T11:35:15.213Z,2.30
2022-10-10T11:37:46.535Z,2.28
2022-10-10T11:40:53.631Z,2.42
2022-10-10T11:43:34.978Z,2.70
2022-10-10T11:46:11.372Z,2.35
2022-10-10T11:49:02.962Z,2.70
2022-10-10T11:51:44.010Z,2.30
2022-10-10T11:54:24.059Z,2.22
2022-10-10T11:56:53.640Z,2.65
2022-10-10T11:59:28.854Z,2.50
2022-10-10T12:04:35.609Z,2.35
2022-10-10T12:07:19.625Z,2.30
2022-10-10T12:09:54.407Z,2.15
2022-10-10T12:12:33.125Z,3.25
2022-10-10T12:15:03.939Z,2.25
2022-10-10T12:17:36.038Z,2.38
2022-10-10T12:20:14.597Z,2.72
2022-10-10T12:22:41.899Z,2.22
2022-10-10T12:25:11.463Z,2.20
2022-10-10T12:28:03.440Z,2.75
2022-10-10T12:30:30.210Z,2.83
2022-10-10T12:32:57.424Z,2.53
2022-10-10T12:35:40.011Z,3.13
2022-10-10T12:41:15.298Z,2.05
2022-10-10T12:43:49.938Z,2.35
2022-10-10T12:46:31.084Z,2.03
2022-10-10T12:49:13.653Z,2.65
2022-10-10T12:51:41.616Z,2.15
2022-10-10T12:54:08.765Z,3.20
2022-10-10T12:56:43.737Z,2.92
2022-10-10T12:59:22.555Z,2.80
2022-10-10T13:01:58.442Z,2.83
2022-10-10T13:04:26.251Z,3.08
2022-10-10T13:06:56.602Z,2.42
2022-10-10T13:09:34.895Z,3.20
2022-10-10T13:12:04.937Z,3.63
2022-10-10T13:14:45.327Z,2.90
2022-10-10T13:17:27.410Z,2.72
2022-10-10T13:19:55.443Z,3.65
2022-10-10T13:22:22.518Z,2.75
2022-10-10T13:24:50.399Z,2.55
2022-10-10T13:27:31.095Z,3.00
2022-10-10T13:29:57.659Z,2.67
2022-10-10T13:32:27.405Z,3.13
2022-10-10T13:34:59.753Z,2.65
2022-10-10T13:37:27.075Z,2.88
2022-10-10T13:39:54.524Z,3.25
2022-10-10T13:42:36.467Z,2.63
2022-10-10T13:45:29.299Z,2.88
2022-10-10T13:48:11.876Z,2.58
2022-10-10T13:50:44.081Z,2.70
2022-10-10T13:53:29.177Z,2.63
2022-10-10T13:56:20.886Z,3.22
2022-10-10T13:58:52.049Z,3.25
2022-10-10T14:01:25.705Z,3.28
2022-10-10T14:03:55.665Z,3.80
2022-10-10T14:06:25.661Z,3.28
2022-10-10T14:08:54.634Z,5.45
2022-10-10T14:11:24.051Z,3.80
2022-10-10T14:13:55.040Z,4.00
2022-10-10T14:16:24.561Z,3.10
2022-10-10T14:18:51.634Z,3.97
2022-10-10T14:21:18.253Z,3.15
2022-10-10T14:23:44.814Z,2.60
2022-10-10T14:26:15.841Z,3.20
2022-10-10T14:28:43.041Z,3.33
2022-10-10T14:31:09.795Z,3.35
2022-10-10T14:33:36.547Z,3.42
2022-10-10T14:36:04.249Z,3.55
2022-10-10T14:38:30.685Z,3.05
2022-10-10T14:40:57.152Z,3.30
2022-10-10T14:43:24.455Z,2.97
2022-10-10T14:45:52.513Z,2.80
2022-10-10T14:48:19.570Z,3.47
2022-10-10T14:50:47.903Z,3.05
2022-10-10T14:53:16.973Z,3.38
2022-10-10T14:55:44.127Z,3.13
2022-10-10T14:58:19.760Z,2.88
2022-10-10T15:00:47.030Z,3.88
2022-10-10T15:03:14.083Z,3.15
2022-10-10T15:05:41.183Z,3.50
2022-10-10T15:08:08.229Z,2.80
2022-10-10T15:10:35.412Z,3.50
2022-10-10T15:13:03.497Z,3.10
2022-10-10T15:15:30.400Z,3.33
2022-10-10T15:18:00.714Z,3.70
2022-10-10T15:20:33.314Z,5.65
2022-10-10T15:23:02.491Z,3.78
2022-10-10T15:25:33.392Z,3.85
2022-10-10T15:28:00.793Z,4.03
2022-10-10T15:30:27.244Z,3.20
2022-10-10T15:32:53.655Z,3.30
2022-10-10T15:35:22.467Z,4.97
2022-10-10T15:37:49.180Z,3.35
2022-10-10T15:40:19.789Z,3.35
2022-10-10T15:42:47.297Z,3.60
2022-10-10T15:45:22.622Z,3.20
2022-10-10T15:50:26.981Z,3.60
2022-10-10T15:52:53.580Z,3.47
2022-10-10T15:55:20.015Z,3.10
2022-10-10T15:57:46.396Z,3.78
2022-10-10T16:00:13.547Z,3.92
2022-10-10T16:02:39.963Z,5.18
2022-10-10T16:05:08.398Z,4.47
2022-10-10T16:07:42.118Z,4.30
2022-10-10T16:10:13.325Z,4.43
2022-10-10T16:12:39.723Z,3.83
2022-10-10T16:15:07.411Z,4.55
2022-10-10T16:17:34.091Z,5.22
2022-10-10T16:20:00.506Z,4.25
2022-10-10T16:22:26.904Z,4.78
2022-10-10T16:25:17.295Z,14.23
2022-10-10T16:27:40.067Z,4.45
2022-10-10T16:30:07.795Z,4.68
2022-10-10T16:32:39.313Z,4.40
2022-10-10T16:35:08.605Z,6.45
2022-10-10T16:37:35.173Z,4.55
2022-10-10T16:40:01.645Z,4.80
2022-10-10T16:42:28.133Z,3.95
2022-10-10T16:44:54.578Z,3.83
2022-10-10T16:47:21.098Z,4.30
2022-10-10T16:49:47.477Z,4.13
2022-10-10T16:52:13.900Z,3.60
2022-10-10T16:54:40.316Z,3.83
2022-10-10T16:57:06.743Z,4.28
2022-10-10T16:59:34.732Z,5.72
2022-10-10T17:02:01.132Z,5.68
2022-10-10T17:04:27.518Z,4.85
2022-10-10T17:06:53.927Z,4.18
2022-10-10T17:09:20.558Z,4.40
2022-10-10T17:11:51.051Z,5.22
2022-10-10T17:14:18.190Z,4.32
2022-10-10T17:17:11.626Z,5.00
2022-10-10T17:19:32.087Z,5.93
2022-10-10T17:21:59.573Z,4.75
2022-10-10T17:24:26.043Z,4.20
2022-10-10T17:26:52.968Z,4.43
2022-10-10T17:29:19.513Z,6.57
2022-10-10T17:31:45.941Z,4.97
2022-10-10T17:34:12.511Z,7.53
2022-10-10T17:36:39.049Z,4.80
2022-10-10T17:39:07.427Z,3.88
2022-10-10T17:41:34.133Z,3.80
2022-10-10T17:44:00.797Z,4.03
2022-10-10T17:46:36.558Z,4.50
2022-10-10T17:49:05.656Z,3.95
2022-10-10T17:51:32.635Z,4.03
2022-10-10T17:53:59.638Z,3.67
2022-10-10T17:56:26.073Z,4.53
2022-10-10T17:58:52.800Z,3.97
2022-10-10T18:01:20.355Z,4.88
2022-10-10T18:03:47.924Z,4.43
2022-10-10T18:06:17.003Z,4.43
2022-10-10T18:08:43.389Z,4.18
2022-10-10T18:11:17.952Z,3.72
2022-10-10T18:13:44.657Z,4.15
2022-10-10T18:16:13.459Z,3.90
2022-10-10T18:18:41.125Z,3.60
2022-10-10T18:21:09.813Z,5.93
2022-10-10T18:23:36.778Z,6.47
2022-10-10T18:26:22.012Z,6.28
2022-10-10T18:28:49.157Z,3.97
2022-10-10T18:31:21.386Z,3.90
2022-10-10T18:33:48.014Z,5.47
2022-10-10T18:36:17.165Z,4.13
2022-10-10T18:38:43.616Z,3.90
2022-10-10T18:41:13.292Z,4.30
2022-10-10T18:43:40.749Z,8.75
2022-10-10T18:46:10.016Z,5.32
2022-10-10T18:48:36.696Z,8.23
2022-10-10T18:51:05.991Z,4.78
2022-10-10T18:53:41.808Z,3.30
2022-10-10T18:56:09.406Z,6.07
2022-10-10T18:58:36.792Z,5.28
2022-10-10T19:01:12.095Z,5.45
2022-10-10T19:03:40.179Z,4.63
2022-10-10T19:06:09.165Z,5.47
2022-10-10T19:08:36.185Z,4.60
2022-10-10T19:11:04.001Z,5.07
2022-10-10T19:13:31.114Z,6.35
2022-10-10T19:16:06.889Z,7.03
2022-10-10T19:18:34.384Z,7.15
2022-10-10T19:21:03.243Z,5.10
2022-10-10T19:23:30.562Z,5.78
2022-10-10T19:26:01.736Z,5.22
2022-10-10T19:28:28.179Z,5.68
2022-10-10T19:30:54.647Z,5.68
2022-10-10T19:33:21.407Z,5.05
2022-10-10T19:35:51.264Z,6.15
2022-10-10T19:38:19.340Z,5.55
2022-10-10T19:40:47.361Z,5.10
2022-10-10T19:43:14.973Z,4.38
2022-10-10T19:45:51.323Z,4.38
2022-10-10T19:48:19.881Z,4.70
2022-10-10T19:50:47.398Z,5.97
2022-10-10T19:53:19.770Z,4.43
2022-10-10T19:55:57.643Z,4.43
2022-10-10T19:58:24.124Z,4.43
2022-10-10T20:00:50.682Z,4.75
2022-10-10T20:03:19.234Z,5.28
2022-10-10T20:05:45.890Z,4.72
2022-10-10T20:08:12.661Z,5.72
2022-10-10T20:10:40.805Z,5.30
2022-10-10T20:13:11.426Z,5.22
2022-10-10T20:15:42.227Z,5.25
2022-10-10T20:18:08.673Z,5.50
2022-10-10T20:20:35.650Z,5.65
2022-10-10T20:23:02.125Z,5.43
2022-10-10T20:25:28.608Z,5.30
2022-10-10T20:27:54.988Z,5.45
2022-10-10T20:30:21.426Z,4.25
2022-10-10T20:32:47.887Z,4.90
2022-10-10T20:35:14.528Z,5.10
2022-10-10T20:37:40.983Z,4.63
2022-10-10T20:40:08.055Z,4.75
2022-10-10T20:42:34.457Z,4.47
2022-10-10T20:45:00.882Z,4.97
2022-10-10T20:47:27.280Z,4.40
2022-10-10T20:49:53.677Z,4.28
2022-10-10T20:52:20.054Z,4.88
2022-10-10T20:54:46.445Z,4.57
2022-10-10T20:57:12.875Z,5.05
2022-10-10T20:59:39.593Z,5.22
2022-10-10T21:02:06.211Z,4.45
2022-10-10T21:04:32.732Z,4.63
2022-10-10T21:06:59.108Z,4.57
2022-10-10T21:09:25.478Z,4.18
2022-10-10T21:11:52.036Z,4.90
2022-10-10T21:14:19.098Z,5.20
2022-10-10T21:16:45.855Z,4.57
2022-10-10T21:19:12.883Z,5.75
2022-10-10T21:21:39.607Z,4.90
2022-10-10T21:24:07.931Z,4.95
2022-10-10T21:26:34.637Z,5.40
2022-10-10T21:29:01.207Z,5.40
2022-10-10T21:31:36.043Z,5.10
2022-10-10T21:34:04.680Z,5.20
2022-10-10T21:36:31.980Z,5.47
2022-10-10T21:38:59.478Z,5.55
2022-10-10T21:41:26.340Z,5.97
2022-10-10T21:43:55.859Z,5.32
2022-10-10T21:46:27.700Z,5.53
2022-10-10T21:48:55.459Z,4.60
2022-10-10T21:51:21.926Z,7.03
2022-10-10T21:53:48.469Z,5.88
2022-10-10T21:56:15.394Z,7.43
2022-10-10T21:58:43.419Z,6.93
2022-10-10T22:01:15.902Z,5.32
2022-10-10T22:03:44.165Z,4.70
2022-10-10T22:06:13.389Z,5.65
2022-10-10T22:08:41.008Z,5.20
2022-10-10T22:11:19.911Z,4.90
2022-10-10T22:13:47.098Z,4.78
2022-10-10T22:16:13.707Z,4.43
2022-10-10T22:18:40.699Z,5.00
2022-10-10T22:21:10.478Z,5.20
2022-10-10T22:23:37.909Z,4.63
2022-10-10T22:26:08.735Z,5.03
2022-10-10T22:28:35.589Z,5.03
2022-10-10T22:31:08.222Z,5.30
2022-10-10T22:33:34.850Z,5.45
2022-10-10T22:36:01.650Z,5.07
2022-10-10T22:38:28.682Z,5.25
2022-10-10T22:40:55.154Z,5.15
2022-10-10T22:43:26.053Z,4.95
2022-10-10T22:45:53.348Z,4.40
2022-10-10T22:48:19.883Z,5.50
2022-10-10T22:50:46.305Z,4.80
2022-10-10T22:53:12.655Z,4.50
2022-10-10T22:55:39.076Z,5.07
2022-10-10T22:58:05.480Z,3.83
2022-10-10T23:00:31.962Z,4.72
2022-10-10T23:02:58.564Z,4.45
2022-10-10T23:05:26.146Z,4.57
2022-10-10T23:07:52.609Z,4.47
2022-10-10T23:10:19.088Z,4.25
2022-10-10T23:12:45.541Z,4.85
2022-10-10T23:15:11.908Z,4.82
2022-10-10T23:17:38.370Z,4.25
2022-10-10T23:20:05.411Z,3.95
2022-10-10T23:22:31.839Z,3.90
2022-10-10T23:24:58.319Z,3.78
2022-10-10T23:27:24.721Z,3.60
2022-10-10T23:29:51.108Z,4.78
2022-10-10T23:32:17.492Z,4.32
2022-10-10T23:34:43.856Z,4.00
2022-10-10T23:37:10.267Z,4.30
2022-10-10T23:39:36.732Z,4.35
2022-10-10T23:42:03.133Z,4.40
2022-10-10T23:44:29.622Z,4.20
2022-10-10T23:46:56.014Z,4.35
2022-10-10T23:49:22.495Z,3.75
2022-10-10T23:51:48.923Z,3.97
2022-10-10T23:54:15.325Z,3.88
2022-10-10T23:56:41.700Z,3.97
2022-10-10T23:59:08.117Z,3.22
